sensor_id;sensor_type;location;lat;lon;timestamp;P1;durP1;ratioP1;P2;durP2;ratioP2
12127;SDS011;6127;57.702;11.904;2022-09-01T00:01:04;0.30;;;0.30;;
12127;SDS011;6127;57.702;11.904;2022-09-01T00:03:32;0.20;;;0.20;;
12127;SDS011;6127;57.702;11.904;2022-09-01T00:05:59;0.17;;;0.17;;
12127;SDS011;6127;57.702;11.904;2022-09-01T00:08:25;0.10;;;0.10;;
12127;SDS011;6127;57.702;11.904;2022-09-01T00:10:51;0.20;;;0.20;;
12127;SDS011;6127;57.702;11.904;2022-09-01T00:13:17;0.30;;;0.30;;
12127;SDS011;6127;57.702;11.904;2022-09-01T00:15:43;0.40;;;0.40;;
12127;SDS011;6127;57.702;11.904;2022-09-01T00:18:08;0.30;;;0.30;;
12127;SDS011;6127;57.702;11.904;2022-09-01T00:20:34;0.22;;;0.22;;
12127;SDS011;6127;57.702;11.904;2022-09-01T00:23:00;0.30;;;0.30;;
12127;SDS011;6127;57.702;11.904;2022-09-01T00:25:27;0.20;;;0.20;;
12127;SDS011;6127;57.702;11.904;2022-09-01T00:27:53;0.20;;;0.20;;
12127;SDS011;6127;57.702;11.904;2022-09-01T00:30:23;0.10;;;0.10;;
12127;SDS011;6127;57.702;11.904;2022-09-01T00:32:49;0.30;;;0.30;;
12127;SDS011;6127;57.702;11.904;2022-09-01T00:35:16;0.30;;;0.30;;
12127;SDS011;6127;57.702;11.904;2022-09-01T00:37:42;0.30;;;0.30;;
12127;SDS011;6127;57.702;11.904;2022-09-01T00:40:08;0.30;;;0.30;;
12127;SDS011;6127;57.702;11.904;2022-09-01T00:42:35;0.30;;;0.30;;
12127;SDS011;6127;57.702;11.904;2022-09-01T00:45:02;0.30;;;0.30;;
12127;SDS011;6127;57.702;11.904;2022-09-01T00:47:28;0.20;;;0.20;;
12127;SDS011;6127;57.702;11.904;2022-09-01T00:49:54;0.20;;;0.20;;
12127;SDS011;6127;57.702;11.904;2022-09-01T00:52:38;0.10;;;0.10;;
12127;SDS011;6127;57.702;11.904;2022-09-01T00:55:29;0.30;;;0.30;;
12127;SDS011;6127;57.702;11.904;2022-09-01T00:57:51;0.30;;;0.30;;
12127;SDS011;6127;57.702;11.904;2022-09-01T01:00:19;0.30;;;0.30;;
12127;SDS011;6127;57.702;11.904;2022-09-01T01:02:46;0.30;;;0.30;;
12127;SDS011;6127;57.702;11.904;2022-09-01T01:05:12;0.20;;;0.20;;
12127;SDS011;6127;57.702;11.904;2022-09-01T01:07:39;0.28;;;0.28;;
12127;SDS011;6127;57.702;11.904;2022-09-01T01:10:07;0.20;;;0.20;;
12127;SDS011;6127;57.702;11.904;2022-09-01T01:12:35;0.10;;;0.10;;
12127;SDS011;6127;57.702;11.904;2022-09-01T01:15:04;0.10;;;0.10;;
12127;SDS011;6127;57.702;11.904;2022-09-01T01:17:31;0.10;;;0.10;;
12127;SDS011;6127;57.702;11.904;2022-09-01T01:19:57;0.20;;;0.20;;
12127;SDS011;6127;57.702;11.904;2022-09-01T01:22:44;0.30;;;0.30;;
12127;SDS011;6127;57.702;11.904;2022-09-01T01:25:36;0.28;;;0.28;;
12127;SDS011;6127;57.702;11.904;2022-09-01T01:28:07;0.20;;;0.20;;
12127;SDS011;6127;57.702;11.904;2022-09-01T01:30:33;0.20;;;0.20;;
12127;SDS011;6127;57.702;11.904;2022-09-01T01:33:01;0.20;;;0.20;;
12127;SDS011;6127;57.702;11.904;2022-09-01T01:35:27;0.20;;;0.20;;
12127;SDS011;6127;57.702;11.904;2022-09-01T01:37:53;0.10;;;0.10;;
12127;SDS011;6127;57.702;11.904;2022-09-01T01:40:20;0.10;;;0.10;;
12127;SDS011;6127;57.702;11.904;2022-09-01T01:42:47;0.20;;;0.20;;
12127;SDS011;6127;57.702;11.904;2022-09-01T01:45:14;0.30;;;0.30;;
12127;SDS011;6127;57.702;11.904;2022-09-01T01:47:44;0.30;;;0.30;;
12127;SDS011;6127;57.702;11.904;2022-09-01T01:50:17;0.30;;;0.30;;
12127;SDS011;6127;57.702;11.904;2022-09-01T01:52:43;0.30;;;0.30;;
12127;SDS011;6127;57.702;11.904;2022-09-01T01:55:09;0.30;;;0.30;;
12127;SDS011;6127;57.702;11.904;2022-09-01T01:57:37;0.30;;;0.30;;
12127;SDS011;6127;57.702;11.904;2022-09-01T02:00:04;0.30;;;0.30;;
12127;SDS011;6127;57.702;11.904;2022-09-01T02:02:30;0.20;;;0.20;;
12127;SDS011;6127;57.702;11.904;2022-09-01T02:04:56;0.30;;;0.30;;
12127;SDS011;6127;57.702;11.904;2022-09-01T02:07:23;0.20;;;0.20;;
12127;SDS011;6127;57.702;11.904;2022-09-01T02:09:51;0.20;;;0.20;;
12127;SDS011;6127;57.702;11.904;2022-09-01T02:12:17;0.20;;;0.20;;
12127;SDS011;6127;57.702;11.904;2022-09-01T02:14:43;0.20;;;0.20;;
12127;SDS011;6127;57.702;11.904;2022-09-01T02:17:09;0.20;;;0.20;;
12127;SDS011;6127;57.702;11.904;2022-09-01T02:19:35;0.20;;;0.20;;
12127;SDS011;6127;57.702;11.904;2022-09-01T02:22:06;0.10;;;0.10;;
12127;SDS011;6127;57.702;11.904;2022-09-01T02:24:35;0.10;;;0.10;;
12127;SDS011;6127;57.702;11.904;2022-09-01T02:27:02;0.13;;;0.13;;
12127;SDS011;6127;57.702;11.904;2022-09-01T02:29:29;0.20;;;0.20;;
12127;SDS011;6127;57.702;11.904;2022-09-01T02:31:55;0.20;;;0.20;;
12127;SDS011;6127;57.702;11.904;2022-09-01T02:34:22;0.20;;;0.20;;
12127;SDS011;6127;57.702;11.904;2022-09-01T02:36:49;0.30;;;0.30;;
12127;SDS011;6127;57.702;11.904;2022-09-01T02:39:16;0.30;;;0.30;;
12127;SDS011;6127;57.702;11.904;2022-09-01T02:41:44;0.30;;;0.30;;
12127;SDS011;6127;57.702;11.904;2022-09-01T02:44:10;0.30;;;0.30;;
12127;SDS011;6127;57.702;11.904;2022-09-01T02:46:37;0.30;;;0.30;;
12127;SDS011;6127;57.702;11.904;2022-09-01T02:49:05;0.30;;;0.30;;
12127;SDS011;6127;57.702;11.904;2022-09-01T02:51:39;0.30;;;0.30;;
12127;SDS011;6127;57.702;11.904;2022-09-01T02:54:05;0.30;;;0.30;;
12127;SDS011;6127;57.702;11.904;2022-09-01T02:56:31;0.30;;;0.30;;
12127;SDS011;6127;57.702;11.904;2022-09-01T02:58:57;0.30;;;0.30;;
12127;SDS011;6127;57.702;11.904;2022-09-01T03:01:29;0.30;;;0.30;;
12127;SDS011;6127;57.702;11.904;2022-09-01T03:03:57;0.30;;;0.30;;
12127;SDS011;6127;57.702;11.904;2022-09-01T03:06:24;0.20;;;0.20;;
12127;SDS011;6127;57.702;11.904;2022-09-01T03:08:51;0.20;;;0.20;;
12127;SDS011;6127;57.702;11.904;2022-09-01T03:11:17;0.20;;;0.20;;
12127;SDS011;6127;57.702;11.904;2022-09-01T03:13:43;0.20;;;0.20;;
12127;SDS011;6127;57.702;11.904;2022-09-01T03:16:09;0.30;;;0.30;;
12127;SDS011;6127;57.702;11.904;2022-09-01T03:18:36;0.20;;;0.20;;
12127;SDS011;6127;57.702;11.904;2022-09-01T03:21:02;0.22;;;0.22;;
12127;SDS011;6127;57.702;11.904;2022-09-01T03:23:29;0.20;;;0.20;;
12127;SDS011;6127;57.702;11.904;2022-09-01T03:25:55;0.20;;;0.20;;
12127;SDS011;6127;57.702;11.904;2022-09-01T03:28:22;0.20;;;0.20;;
12127;SDS011;6127;57.702;11.904;2022-09-01T03:30:50;0.20;;;0.20;;
12127;SDS011;6127;57.702;11.904;2022-09-01T03:33:16;0.17;;;0.17;;
12127;SDS011;6127;57.702;11.904;2022-09-01T03:35:43;0.10;;;0.10;;
12127;SDS011;6127;57.702;11.904;2022-09-01T03:38:09;0.20;;;0.20;;
12127;SDS011;6127;57.702;11.904;2022-09-01T03:40:37;0.20;;;0.20;;
12127;SDS011;6127;57.702;11.904;2022-09-01T03:43:04;0.20;;;0.20;;
12127;SDS011;6127;57.702;11.904;2022-09-01T03:45:31;0.20;;;0.20;;
12127;SDS011;6127;57.702;11.904;2022-09-01T03:48:02;0.20;;;0.20;;
12127;SDS011;6127;57.702;11.904;2022-09-01T03:50:38;0.10;;;0.10;;
12127;SDS011;6127;57.702;11.904;2022-09-01T03:53:10;0.30;;;0.30;;
12127;SDS011;6127;57.702;11.904;2022-09-01T03:55:37;0.40;;;0.40;;
12127;SDS011;6127;57.702;11.904;2022-09-01T03:58:05;0.40;;;0.40;;
12127;SDS011;6127;57.702;11.904;2022-09-01T04:00:33;0.40;;;0.40;;
12127;SDS011;6127;57.702;11.904;2022-09-01T04:03:00;0.30;;;0.30;;
12127;SDS011;6127;57.702;11.904;2022-09-01T04:05:27;0.30;;;0.30;;
12127;SDS011;6127;57.702;11.904;2022-09-01T04:07:55;0.40;;;0.40;;
12127;SDS011;6127;57.702;11.904;2022-09-01T04:10:21;0.30;;;0.30;;
12127;SDS011;6127;57.702;11.904;2022-09-01T04:12:48;0.30;;;0.30;;
12127;SDS011;6127;57.702;11.904;2022-09-01T04:15:14;0.30;;;0.30;;
12127;SDS011;6127;57.702;11.904;2022-09-01T04:17:44;0.30;;;0.30;;
12127;SDS011;6127;57.702;11.904;2022-09-01T04:20:33;0.30;;;0.30;;
12127;SDS011;6127;57.702;11.904;2022-09-01T04:23:11;0.30;;;0.30;;
12127;SDS011;6127;57.702;11.904;2022-09-01T04:25:37;0.30;;;0.30;;
12127;SDS011;6127;57.702;11.904;2022-09-01T04:28:04;0.30;;;0.30;;
12127;SDS011;6127;57.702;11.904;2022-09-01T04:30:38;0.20;;;0.20;;
12127;SDS011;6127;57.702;11.904;2022-09-01T04:33:07;0.20;;;0.20;;
12127;SDS011;6127;57.702;11.904;2022-09-01T04:35:37;0.20;;;0.20;;
12127;SDS011;6127;57.702;11.904;2022-09-01T04:38:04;0.20;;;0.20;;
12127;SDS011;6127;57.702;11.904;2022-09-01T04:40:32;0.20;;;0.20;;
12127;SDS011;6127;57.702;11.904;2022-09-01T04:42:58;0.20;;;0.20;;
12127;SDS011;6127;57.702;11.904;2022-09-01T04:45:24;0.20;;;0.20;;
12127;SDS011;6127;57.702;11.904;2022-09-01T04:47:51;0.20;;;0.20;;
12127;SDS011;6127;57.702;11.904;2022-09-01T04:50:18;0.20;;;0.20;;
12127;SDS011;6127;57.702;11.904;2022-09-01T04:52:46;0.20;;;0.20;;
12127;SDS011;6127;57.702;11.904;2022-09-01T04:55:13;0.20;;;0.20;;
12127;SDS011;6127;57.702;11.904;2022-09-01T04:57:43;0.20;;;0.20;;
12127;SDS011;6127;57.702;11.904;2022-09-01T05:00:12;0.20;;;0.20;;
12127;SDS011;6127;57.702;11.904;2022-09-01T05:02:46;0.20;;;0.20;;
12127;SDS011;6127;57.702;11.904;2022-09-01T05:05:12;0.20;;;0.20;;
12127;SDS011;6127;57.702;11.904;2022-09-01T05:07:38;0.20;;;0.20;;
12127;SDS011;6127;57.702;11.904;2022-09-01T05:10:04;0.30;;;0.30;;
12127;SDS011;6127;57.702;11.904;2022-09-01T05:12:30;0.30;;;0.30;;
12127;SDS011;6127;57.702;11.904;2022-09-01T05:14:56;0.30;;;0.30;;
12127;SDS011;6127;57.702;11.904;2022-09-01T05:17:22;0.30;;;0.30;;
12127;SDS011;6127;57.702;11.904;2022-09-01T05:19:53;0.30;;;0.30;;
12127;SDS011;6127;57.702;11.904;2022-09-01T05:22:20;0.30;;;0.30;;
12127;SDS011;6127;57.702;11.904;2022-09-01T05:24:47;0.30;;;0.30;;
12127;SDS011;6127;57.702;11.904;2022-09-01T05:27:15;0.30;;;0.30;;
12127;SDS011;6127;57.702;11.904;2022-09-01T05:29:42;0.30;;;0.30;;
12127;SDS011;6127;57.702;11.904;2022-09-01T05:32:10;0.30;;;0.30;;
12127;SDS011;6127;57.702;11.904;2022-09-01T05:34:37;0.30;;;0.30;;
12127;SDS011;6127;57.702;11.904;2022-09-01T05:37:04;0.30;;;0.30;;
12127;SDS011;6127;57.702;11.904;2022-09-01T05:39:31;0.20;;;0.20;;
12127;SDS011;6127;57.702;11.904;2022-09-01T05:41:57;0.20;;;0.20;;
12127;SDS011;6127;57.702;11.904;2022-09-01T05:44:23;0.25;;;0.25;;
12127;SDS011;6127;57.702;11.904;2022-09-01T05:46:49;0.20;;;0.20;;
12127;SDS011;6127;57.702;11.904;2022-09-01T05:49:16;0.20;;;0.20;;
12127;SDS011;6127;57.702;11.904;2022-09-01T05:51:44;0.20;;;0.20;;
12127;SDS011;6127;57.702;11.904;2022-09-01T05:54:13;0.10;;;0.10;;
12127;SDS011;6127;57.702;11.904;2022-09-01T05:56:40;0.20;;;0.20;;
12127;SDS011;6127;57.702;11.904;2022-09-01T05:59:06;0.30;;;0.30;;
12127;SDS011;6127;57.702;11.904;2022-09-01T06:01:34;0.30;;;0.30;;
12127;SDS011;6127;57.702;11.904;2022-09-01T06:04:03;0.30;;;0.30;;
12127;SDS011;6127;57.702;11.904;2022-09-01T06:06:41;0.30;;;0.30;;
12127;SDS011;6127;57.702;11.904;2022-09-01T06:09:11;0.15;;;0.15;;
12127;SDS011;6127;57.702;11.904;2022-09-01T06:11:38;0.10;;;0.10;;
12127;SDS011;6127;57.702;11.904;2022-09-01T06:14:05;0.10;;;0.10;;
12127;SDS011;6127;57.702;11.904;2022-09-01T06:16:35;0.22;;;0.22;;
12127;SDS011;6127;57.702;11.904;2022-09-01T06:19:01;0.30;;;0.30;;
12127;SDS011;6127;57.702;11.904;2022-09-01T06:21:28;0.30;;;0.30;;
12127;SDS011;6127;57.702;11.904;2022-09-01T06:23:55;0.20;;;0.20;;
12127;SDS011;6127;57.702;11.904;2022-09-01T06:26:23;0.20;;;0.20;;
12127;SDS011;6127;57.702;11.904;2022-09-01T06:28:53;0.10;;;0.10;;
12127;SDS011;6127;57.702;11.904;2022-09-01T06:31:20;0.20;;;0.20;;
12127;SDS011;6127;57.702;11.904;2022-09-01T06:33:50;0.30;;;0.30;;
12127;SDS011;6127;57.702;11.904;2022-09-01T06:36:17;0.30;;;0.30;;
12127;SDS011;6127;57.702;11.904;2022-09-01T06:38:44;0.20;;;0.20;;
12127;SDS011;6127;57.702;11.904;2022-09-01T06:41:10;0.13;;;0.13;;
12127;SDS011;6127;57.702;11.904;2022-09-01T06:43:37;0.20;;;0.20;;
12127;SDS011;6127;57.702;11.904;2022-09-01T06:46:05;0.30;;;0.30;;
12127;SDS011;6127;57.702;11.904;2022-09-01T06:48:33;0.30;;;0.30;;
12127;SDS011;6127;57.702;11.904;2022-09-01T06:51:00;0.20;;;0.20;;
12127;SDS011;6127;57.702;11.904;2022-09-01T06:53:27;0.10;;;0.10;;
12127;SDS011;6127;57.702;11.904;2022-09-01T06:55:56;0.22;;;0.22;;
12127;SDS011;6127;57.702;11.904;2022-09-01T06:58:22;0.30;;;0.30;;
12127;SDS011;6127;57.702;11.904;2022-09-01T07:00:49;0.20;;;0.20;;
12127;SDS011;6127;57.702;11.904;2022-09-01T07:03:15;0.10;;;0.10;;
12127;SDS011;6127;57.702;11.904;2022-09-01T07:05:43;0.20;;;0.20;;
12127;SDS011;6127;57.702;11.904;2022-09-01T07:08:11;0.10;;;0.10;;
12127;SDS011;6127;57.702;11.904;2022-09-01T07:10:42;0.30;;;0.30;;
12127;SDS011;6127;57.702;11.904;2022-09-01T07:13:10;0.20;;;0.20;;
12127;SDS011;6127;57.702;11.904;2022-09-01T07:15:37;0.20;;;0.20;;
12127;SDS011;6127;57.702;11.904;2022-09-01T07:18:03;0.10;;;0.10;;
12127;SDS011;6127;57.702;11.904;2022-09-01T07:20:30;0.30;;;0.30;;
12127;SDS011;6127;57.702;11.904;2022-09-01T07:23:03;0.20;;;0.20;;
12127;SDS011;6127;57.702;11.904;2022-09-01T07:25:30;0.10;;;0.10;;
12127;SDS011;6127;57.702;11.904;2022-09-01T07:28:03;0.30;;;0.30;;
12127;SDS011;6127;57.702;11.904;2022-09-01T07:30:29;0.20;;;0.20;;
12127;SDS011;6127;57.702;11.904;2022-09-01T07:32:55;0.10;;;0.10;;
12127;SDS011;6127;57.702;11.904;2022-09-01T07:35:22;0.30;;;0.30;;
12127;SDS011;6127;57.702;11.904;2022-09-01T07:37:48;0.20;;;0.20;;
12127;SDS011;6127;57.702;11.904;2022-09-01T07:40:14;0.10;;;0.10;;
12127;SDS011;6127;57.702;11.904;2022-09-01T07:42:43;0.28;;;0.28;;
12127;SDS011;6127;57.702;11.904;2022-09-01T07:45:09;0.30;;;0.30;;
12127;SDS011;6127;57.702;11.904;2022-09-01T07:47:36;0.10;;;0.10;;
12127;SDS011;6127;57.702;11.904;2022-09-01T07:50:03;0.20;;;0.20;;
12127;SDS011;6127;57.702;11.904;2022-09-01T07:52:35;0.27;;;0.27;;
12127;SDS011;6127;57.702;11.904;2022-09-01T07:55:06;0.10;;;0.10;;
12127;SDS011;6127;57.702;11.904;2022-09-01T07:57:32;0.30;;;0.30;;
12127;SDS011;6127;57.702;11.904;2022-09-01T07:59:58;0.20;;;0.20;;
12127;SDS011;6127;57.702;11.904;2022-09-01T08:02:24;0.10;;;0.10;;
12127;SDS011;6127;57.702;11.904;2022-09-01T08:04:51;0.30;;;0.30;;
12127;SDS011;6127;57.702;11.904;2022-09-01T08:07:17;0.20;;;0.20;;
12127;SDS011;6127;57.702;11.904;2022-09-01T08:09:44;0.20;;;0.20;;
12127;SDS011;6127;57.702;11.904;2022-09-01T08:12:10;0.30;;;0.30;;
12127;SDS011;6127;57.702;11.904;2022-09-01T08:14:36;0.10;;;0.10;;
12127;SDS011;6127;57.702;11.904;2022-09-01T08:17:02;0.30;;;0.30;;
12127;SDS011;6127;57.702;11.904;2022-09-01T08:19:29;0.10;;;0.10;;
12127;SDS011;6127;57.702;11.904;2022-09-01T08:21:55;0.27;;;0.27;;
12127;SDS011;6127;57.702;11.904;2022-09-01T08:24:21;0.20;;;0.20;;
12127;SDS011;6127;57.702;11.904;2022-09-01T08:26:47;0.10;;;0.10;;
12127;SDS011;6127;57.702;11.904;2022-09-01T08:29:13;0.22;;;0.22;;
12127;SDS011;6127;57.702;11.904;2022-09-01T08:31:39;0.10;;;0.10;;
12127;SDS011;6127;57.702;11.904;2022-09-01T08:34:05;0.30;;;0.30;;
12127;SDS011;6127;57.702;11.904;2022-09-01T08:36:31;0.10;;;0.10;;
12127;SDS011;6127;57.702;11.904;2022-09-01T08:38:57;0.30;;;0.30;;
12127;SDS011;6127;57.702;11.904;2022-09-01T08:44:10;0.20;;;0.20;;
12127;SDS011;6127;57.702;11.904;2022-09-01T08:46:39;0.20;;;0.20;;
12127;SDS011;6127;57.702;11.904;2022-09-01T08:49:12;0.20;;;0.20;;
12127;SDS011;6127;57.702;11.904;2022-09-01T08:51:42;0.30;;;0.30;;
12127;SDS011;6127;57.702;11.904;2022-09-01T08:54:28;0.10;;;0.10;;
12127;SDS011;6127;57.702;11.904;2022-09-01T08:56:58;0.20;;;0.20;;
12127;SDS011;6127;57.702;11.904;2022-09-01T08:59:25;0.20;;;0.20;;
12127;SDS011;6127;57.702;11.904;2022-09-01T09:09:52;0.10;;;0.10;;
12127;SDS011;6127;57.702;11.904;2022-09-01T09:17:22;0.10;;;0.10;;
12127;SDS011;6127;57.702;11.904;2022-09-01T09:19:50;0.20;;;0.20;;
12127;SDS011;6127;57.702;11.904;2022-09-01T09:22:17;0.23;;;0.23;;
12127;SDS011;6127;57.702;11.904;2022-09-01T09:24:51;0.10;;;0.10;;
12127;SDS011;6127;57.702;11.904;2022-09-01T09:29:46;0.30;;;0.30;;
12127;SDS011;6127;57.702;11.904;2022-09-01T09:32:12;0.20;;;0.20;;
12127;SDS011;6127;57.702;11.904;2022-09-01T09:34:39;0.10;;;0.10;;
12127;SDS011;6127;57.702;11.904;2022-09-01T09:37:15;0.20;;;0.20;;
12127;SDS011;6127;57.702;11.904;2022-09-01T09:39:42;0.20;;;0.20;;
12127;SDS011;6127;57.702;11.904;2022-09-01T09:42:11;0.13;;;0.13;;
12127;SDS011;6127;57.702;11.904;2022-09-01T09:44:39;0.10;;;0.10;;
12127;SDS011;6127;57.702;11.904;2022-09-01T09:47:07;0.10;;;0.10;;
12127;SDS011;6127;57.702;11.904;2022-09-01T09:49:35;0.20;;;0.20;;
12127;SDS011;6127;57.702;11.904;2022-09-01T09:54:27;0.10;;;0.10;;
12127;SDS011;6127;57.702;11.904;2022-09-01T09:59:41;0.00;;;0.00;;
12127;SDS011;6127;57.702;11.904;2022-09-01T10:04:42;0.10;;;0.10;;
12127;SDS011;6127;57.702;11.904;2022-09-01T10:10:25;0.10;;;0.10;;
12127;SDS011;6127;57.702;11.904;2022-09-01T10:12:52;0.00;;;0.00;;
12127;SDS011;6127;57.702;11.904;2022-09-01T10:15:19;0.10;;;0.10;;
12127;SDS011;6127;57.702;11.904;2022-09-01T10:17:45;0.10;;;0.10;;
12127;SDS011;6127;57.702;11.904;2022-09-01T10:20:17;0.10;;;0.10;;
12127;SDS011;6127;57.702;11.904;2022-09-01T10:22:48;0.07;;;0.07;;
12127;SDS011;6127;57.702;11.904;2022-09-01T10:25:47;0.03;;;0.03;;
12127;SDS011;6127;57.702;11.904;2022-09-01T10:28:08;0.00;;;0.00;;
12127;SDS011;6127;57.702;11.904;2022-09-01T10:30:37;0.00;;;0.00;;
12127;SDS011;6127;57.702;11.904;2022-09-01T10:33:06;0.00;;;0.00;;
12127;SDS011;6127;57.702;11.904;2022-09-01T10:35:33;0.00;;;0.00;;
12127;SDS011;6127;57.702;11.904;2022-09-01T10:38:05;0.00;;;0.00;;
12127;SDS011;6127;57.702;11.904;2022-09-01T10:42:59;0.10;;;0.10;;
12127;SDS011;6127;57.702;11.904;2022-09-01T10:45:45;0.00;;;0.00;;
12127;SDS011;6127;57.702;11.904;2022-09-01T10:50:51;0.00;;;0.00;;
12127;SDS011;6127;57.702;11.904;2022-09-01T10:56:45;0.10;;;0.10;;
12127;SDS011;6127;57.702;11.904;2022-09-01T10:58:49;0.00;;;0.00;;
12127;SDS011;6127;57.702;11.904;2022-09-01T11:04:06;0.10;;;0.10;;
12127;SDS011;6127;57.702;11.904;2022-09-01T11:06:42;0.00;;;0.00;;
12127;SDS011;6127;57.702;11.904;2022-09-01T11:14:50;0.10;;;0.10;;
12127;SDS011;6127;57.702;11.904;2022-09-01T11:17:18;0.10;;;0.10;;
12127;SDS011;6127;57.702;11.904;2022-09-01T11:19:45;0.00;;;0.00;;
12127;SDS011;6127;57.702;11.904;2022-09-01T11:27:12;0.08;;;0.08;;
12127;SDS011;6127;57.702;11.904;2022-09-01T11:30:01;0.10;;;0.10;;
12127;SDS011;6127;57.702;11.904;2022-09-01T11:32:32;0.10;;;0.10;;
12127;SDS011;6127;57.702;11.904;2022-09-01T11:35:00;0.03;;;0.03;;
12127;SDS011;6127;57.702;11.904;2022-09-01T11:37:27;0.00;;;0.00;;
12127;SDS011;6127;57.702;11.904;2022-09-01T11:39:54;0.00;;;0.00;;
12127;SDS011;6127;57.702;11.904;2022-09-01T11:42:26;0.00;;;0.00;;
12127;SDS011;6127;57.702;11.904;2022-09-01T11:47:32;0.10;;;0.10;;
12127;SDS011;6127;57.702;11.904;2022-09-01T11:50:04;0.00;;;0.00;;
12127;SDS011;6127;57.702;11.904;2022-09-01T11:52:32;0.00;;;0.00;;
12127;SDS011;6127;57.702;11.904;2022-09-01T11:55:00;0.08;;;0.08;;
12127;SDS011;6127;57.702;11.904;2022-09-01T11:59:56;0.10;;;0.10;;
12127;SDS011;6127;57.702;11.904;2022-09-01T12:02:24;0.00;;;0.00;;
12127;SDS011;6127;57.702;11.904;2022-09-01T12:04:52;0.10;;;0.10;;
12127;SDS011;6127;57.702;11.904;2022-09-01T12:07:38;0.00;;;0.00;;
12127;SDS011;6127;57.702;11.904;2022-09-01T12:12:45;0.00;;;0.00;;
12127;SDS011;6127;57.702;11.904;2022-09-01T12:15:20;0.00;;;0.00;;
12127;SDS011;6127;57.702;11.904;2022-09-01T12:17:47;0.05;;;0.05;;
12127;SDS011;6127;57.702;11.904;2022-09-01T12:20:29;0.00;;;0.00;;
12127;SDS011;6127;57.702;11.904;2022-09-01T12:22:57;0.10;;;0.10;;
12127;SDS011;6127;57.702;11.904;2022-09-01T12:27:49;0.00;;;0.00;;
12127;SDS011;6127;57.702;11.904;2022-09-01T12:30:16;0.00;;;0.00;;
12127;SDS011;6127;57.702;11.904;2022-09-01T12:32:42;0.00;;;0.00;;
12127;SDS011;6127;57.702;11.904;2022-09-01T12:35:16;0.10;;;0.10;;
12127;SDS011;6127;57.702;11.904;2022-09-01T12:37:43;0.00;;;0.00;;
12127;SDS011;6127;57.702;11.904;2022-09-01T12:43:11;0.10;;;0.10;;
12127;SDS011;6127;57.702;11.904;2022-09-01T12:45:51;0.10;;;0.10;;
12127;SDS011;6127;57.702;11.904;2022-09-01T12:48:30;0.10;;;0.10;;
12127;SDS011;6127;57.702;11.904;2022-09-01T12:50:57;0.08;;;0.08;;
12127;SDS011;6127;57.702;11.904;2022-09-01T12:53:25;0.00;;;0.00;;
12127;SDS011;6127;57.702;11.904;2022-09-01T12:56:03;0.00;;;0.00;;
12127;SDS011;6127;57.702;11.904;2022-09-01T12:58:30;0.10;;;0.10;;
12127;SDS011;6127;57.702;11.904;2022-09-01T13:01:05;0.00;;;0.00;;
12127;SDS011;6127;57.702;11.904;2022-09-01T13:03:34;0.00;;;0.00;;
12127;SDS011;6127;57.702;11.904;2022-09-01T13:06:01;0.00;;;0.00;;
12127;SDS011;6127;57.702;11.904;2022-09-01T13:08:29;0.00;;;0.00;;
12127;SDS011;6127;57.702;11.904;2022-09-01T13:11:01;0.00;;;0.00;;
12127;SDS011;6127;57.702;11.904;2022-09-01T13:13:27;0.00;;;0.00;;
12127;SDS011;6127;57.702;11.904;2022-09-01T13:15:54;0.00;;;0.00;;
12127;SDS011;6127;57.702;11.904;2022-09-01T13:18:22;0.00;;;0.00;;
12127;SDS011;6127;57.702;11.904;2022-09-01T13:20:48;0.00;;;0.00;;
12127;SDS011;6127;57.702;11.904;2022-09-01T13:23:15;0.00;;;0.00;;
12127;SDS011;6127;57.702;11.904;2022-09-01T13:25:41;0.00;;;0.00;;
12127;SDS011;6127;57.702;11.904;2022-09-01T13:28:11;0.00;;;0.00;;
12127;SDS011;6127;57.702;11.904;2022-09-01T13:30:38;0.10;;;0.10;;
12127;SDS011;6127;57.702;11.904;2022-09-01T13:33:04;0.08;;;0.08;;
12127;SDS011;6127;57.702;11.904;2022-09-01T13:35:30;0.00;;;0.00;;
12127;SDS011;6127;57.702;11.904;2022-09-01T13:37:56;0.07;;;0.07;;
12127;SDS011;6127;57.702;11.904;2022-09-01T13:40:22;0.10;;;0.10;;
12127;SDS011;6127;57.702;11.904;2022-09-01T13:42:50;0.00;;;0.00;;
12127;SDS011;6127;57.702;11.904;2022-09-01T13:45:17;0.00;;;0.00;;
12127;SDS011;6127;57.702;11.904;2022-09-01T13:47:44;0.00;;;0.00;;
12127;SDS011;6127;57.702;11.904;2022-09-01T13:50:12;0.07;;;0.07;;
12127;SDS011;6127;57.702;11.904;2022-09-01T13:52:39;0.10;;;0.10;;
12127;SDS011;6127;57.702;11.904;2022-09-01T13:55:06;0.00;;;0.00;;
12127;SDS011;6127;57.702;11.904;2022-09-01T13:57:33;0.00;;;0.00;;
12127;SDS011;6127;57.702;11.904;2022-09-01T13:59:59;0.10;;;0.10;;
12127;SDS011;6127;57.702;11.904;2022-09-01T14:02:25;0.10;;;0.10;;
12127;SDS011;6127;57.702;11.904;2022-09-01T14:04:51;0.10;;;0.10;;
12127;SDS011;6127;57.702;11.904;2022-09-01T14:07:17;0.10;;;0.10;;
12127;SDS011;6127;57.702;11.904;2022-09-01T14:09:44;0.10;;;0.10;;
12127;SDS011;6127;57.702;11.904;2022-09-01T14:12:10;0.00;;;0.00;;
12127;SDS011;6127;57.702;11.904;2022-09-01T14:14:36;0.10;;;0.10;;
12127;SDS011;6127;57.702;11.904;2022-09-01T14:17:02;0.00;;;0.00;;
12127;SDS011;6127;57.702;11.904;2022-09-01T14:19:28;0.00;;;0.00;;
12127;SDS011;6127;57.702;11.904;2022-09-01T14:21:54;0.10;;;0.10;;
12127;SDS011;6127;57.702;11.904;2022-09-01T14:24:21;0.00;;;0.00;;
12127;SDS011;6127;57.702;11.904;2022-09-01T14:26:47;0.00;;;0.00;;
12127;SDS011;6127;57.702;11.904;2022-09-01T14:29:14;0.10;;;0.10;;
12127;SDS011;6127;57.702;11.904;2022-09-01T14:31:40;0.00;;;0.00;;
12127;SDS011;6127;57.702;11.904;2022-09-01T14:34:07;0.10;;;0.10;;
12127;SDS011;6127;57.702;11.904;2022-09-01T14:36:36;0.10;;;0.10;;
12127;SDS011;6127;57.702;11.904;2022-09-01T14:39:02;0.10;;;0.10;;
12127;SDS011;6127;57.702;11.904;2022-09-01T14:41:28;0.10;;;0.10;;
12127;SDS011;6127;57.702;11.904;2022-09-01T14:43:55;0.10;;;0.10;;
12127;SDS011;6127;57.702;11.904;2022-09-01T14:46:26;0.10;;;0.10;;
12127;SDS011;6127;57.702;11.904;2022-09-01T14:48:54;0.00;;;0.00;;
12127;SDS011;6127;57.702;11.904;2022-09-01T14:51:24;0.00;;;0.00;;
12127;SDS011;6127;57.702;11.904;2022-09-01T14:53:51;0.08;;;0.08;;
12127;SDS011;6127;57.702;11.904;2022-09-01T14:56:17;0.10;;;0.10;;
12127;SDS011;6127;57.702;11.904;2022-09-01T14:58:46;0.10;;;0.10;;
12127;SDS011;6127;57.702;11.904;2022-09-01T15:01:13;0.10;;;0.10;;
12127;SDS011;6127;57.702;11.904;2022-09-01T15:03:40;0.10;;;0.10;;
12127;SDS011;6127;57.702;11.904;2022-09-01T15:06:06;0.00;;;0.00;;
12127;SDS011;6127;57.702;11.904;2022-09-01T15:08:32;0.00;;;0.00;;
12127;SDS011;6127;57.702;11.904;2022-09-01T15:10:58;0.10;;;0.10;;
12127;SDS011;6127;57.702;11.904;2022-09-01T15:13:25;0.10;;;0.10;;
12127;SDS011;6127;57.702;11.904;2022-09-01T15:15:51;0.05;;;0.05;;
12127;SDS011;6127;57.702;11.904;2022-09-01T15:18:17;0.10;;;0.10;;
12127;SDS011;6127;57.702;11.904;2022-09-01T15:20:43;0.10;;;0.10;;
12127;SDS011;6127;57.702;11.904;2022-09-01T15:23:10;0.00;;;0.00;;
12127;SDS011;6127;57.702;11.904;2022-09-01T15:25:36;0.00;;;0.00;;
12127;SDS011;6127;57.702;11.904;2022-09-01T15:28:03;0.00;;;0.00;;
12127;SDS011;6127;57.702;11.904;2022-09-01T15:30:30;0.10;;;0.10;;
12127;SDS011;6127;57.702;11.904;2022-09-01T15:32:56;0.00;;;0.00;;
12127;SDS011;6127;57.702;11.904;2022-09-01T15:35:22;0.10;;;0.10;;
12127;SDS011;6127;57.702;11.904;2022-09-01T15:37:48;0.10;;;0.10;;
12127;SDS011;6127;57.702;11.904;2022-09-01T15:40:15;0.10;;;0.10;;
12127;SDS011;6127;57.702;11.904;2022-09-01T15:42:41;0.10;;;0.10;;
12127;SDS011;6127;57.702;11.904;2022-09-01T15:45:09;0.10;;;0.10;;
12127;SDS011;6127;57.702;11.904;2022-09-01T15:47:35;0.10;;;0.10;;
12127;SDS011;6127;57.702;11.904;2022-09-01T15:50:06;0.10;;;0.10;;
12127;SDS011;6127;57.702;11.904;2022-09-01T15:52:32;0.10;;;0.10;;
12127;SDS011;6127;57.702;11.904;2022-09-01T15:54:59;0.10;;;0.10;;
12127;SDS011;6127;57.702;11.904;2022-09-01T15:57:25;0.10;;;0.10;;